sensor_id;sensor_type;location;lat;lon;timestamp;P1;durP1;ratioP1;P2;durP2;ratioP2
47882;SDS011;37739;50.350;7.578;2022-10-17T00:02:06;4.67;;;3.70;;
47882;SDS011;37739;50.350;7.578;2022-10-17T00:04:33;3.77;;;3.37;;
47882;SDS011;37739;50.350;7.578;2022-10-17T00:07:01;7.00;;;4.30;;
47882;SDS011;37739;50.350;7.578;2022-10-17T00:09:26;4.73;;;3.30;;
47882;SDS011;37739;50.350;7.578;2022-10-17T00:11:51;6.00;;;4.17;;
47882;SDS011;37739;50.350;7.578;2022-10-17T00:14:16;4.40;;;4.00;;
47882;SDS011;37739;50.350;7.578;2022-10-17T00:16:44;4.67;;;4.27;;
47882;SDS011;37739;50.350;7.578;2022-10-17T00:19:09;3.30;;;3.00;;
47882;SDS011;37739;50.350;7.578;2022-10-17T00:21:35;4.70;;;3.80;;
47882;SDS011;37739;50.350;7.578;2022-10-17T00:24:02;3.70;;;3.40;;
47882;SDS011;37739;50.350;7.578;2022-10-17T00:26:30;4.00;;;3.53;;
47882;SDS011;37739;50.350;7.578;2022-10-17T00:28:56;4.10;;;3.63;;
47882;SDS011;37739;50.350;7.578;2022-10-17T00:31:21;4.33;;;3.97;;
47882;SDS011;37739;50.350;7.578;2022-10-17T00:33:50;3.50;;;3.10;;
47882;SDS011;37739;50.350;7.578;2022-10-17T00:36:20;4.77;;;4.27;;
47882;SDS011;37739;50.350;7.578;2022-10-17T00:38:50;4.13;;;3.60;;
47882;SDS011;37739;50.350;7.578;2022-10-17T00:41:21;4.40;;;3.13;;
47882;SDS011;37739;50.350;7.578;2022-10-17T00:43:50;4.27;;;3.87;;
47882;SDS011;37739;50.350;7.578;2022-10-17T00:46:18;3.57;;;3.27;;
47882;SDS011;37739;50.350;7.578;2022-10-17T00:48:47;4.13;;;3.37;;
47882;SDS011;37739;50.350;7.578;2022-10-17T00:51:17;4.23;;;3.83;;
47882;SDS011;37739;50.350;7.578;2022-10-17T00:53:52;3.87;;;3.47;;
47882;SDS011;37739;50.350;7.578;2022-10-17T00:56:20;3.60;;;3.30;;
47882;SDS011;37739;50.350;7.578;2022-10-17T00:58:46;3.43;;;3.13;;
47882;SDS011;37739;50.350;7.578;2022-10-17T01:01:12;3.77;;;3.43;;
47882;SDS011;37739;50.350;7.578;2022-10-17T01:03:39;6.13;;;3.70;;
47882;SDS011;37739;50.350;7.578;2022-10-17T01:06:05;4.23;;;2.90;;
47882;SDS011;37739;50.350;7.578;2022-10-17T01:08:30;3.57;;;3.27;;
47882;SDS011;37739;50.350;7.578;2022-10-17T01:11:12;3.80;;;3.40;;
47882;SDS011;37739;50.350;7.578;2022-10-17T01:13:56;3.70;;;3.40;;
47882;SDS011;37739;50.350;7.578;2022-10-17T01:21:54;3.90;;;3.60;;
47882;SDS011;37739;50.350;7.578;2022-10-17T01:24:30;3.33;;;3.03;;
47882;SDS011;37739;50.350;7.578;2022-10-17T01:29:46;5.50;;;3.10;;
47882;SDS011;37739;50.350;7.578;2022-10-17T01:32:24;3.47;;;3.17;;
47882;SDS011;37739;50.350;7.578;2022-10-17T01:34:56;6.03;;;2.90;;
47882;SDS011;37739;50.350;7.578;2022-10-17T01:37:55;3.77;;;3.47;;
47882;SDS011;37739;50.350;7.578;2022-10-17T01:40:39;3.23;;;3.03;;
47882;SDS011;37739;50.350;7.578;2022-10-17T01:43:22;5.40;;;3.10;;
47882;SDS011;37739;50.350;7.578;2022-10-17T01:48:39;4.50;;;2.90;;
47882;SDS011;37739;50.350;7.578;2022-10-17T01:51:10;3.07;;;2.80;;
47882;SDS011;37739;50.350;7.578;2022-10-17T01:53:43;3.83;;;3.40;;
47882;SDS011;37739;50.350;7.578;2022-10-17T01:56:16;3.43;;;2.70;;
47882;SDS011;37739;50.350;7.578;2022-10-17T01:58:51;2.97;;;2.63;;
47882;SDS011;37739;50.350;7.578;2022-10-17T02:01:21;3.87;;;3.10;;
47882;SDS011;37739;50.350;7.578;2022-10-17T02:03:50;2.87;;;2.40;;
47882;SDS011;37739;50.350;7.578;2022-10-17T02:06:17;2.90;;;2.60;;
47882;SDS011;37739;50.350;7.578;2022-10-17T02:08:46;3.47;;;2.80;;
47882;SDS011;37739;50.350;7.578;2022-10-17T02:11:17;2.53;;;2.33;;
47882;SDS011;37739;50.350;7.578;2022-10-17T02:13:50;3.73;;;3.07;;
47882;SDS011;37739;50.350;7.578;2022-10-17T02:22:17;3.80;;;3.07;;
47882;SDS011;37739;50.350;7.578;2022-10-17T02:24:58;2.97;;;2.77;;
47882;SDS011;37739;50.350;7.578;2022-10-17T02:30:36;5.00;;;2.73;;
47882;SDS011;37739;50.350;7.578;2022-10-17T02:35:46;2.60;;;2.40;;
47882;SDS011;37739;50.350;7.578;2022-10-17T02:38:17;3.10;;;2.90;;
47882;SDS011;37739;50.350;7.578;2022-10-17T02:40:48;3.70;;;3.37;;
47882;SDS011;37739;50.350;7.578;2022-10-17T02:43:15;3.60;;;3.13;;
47882;SDS011;37739;50.350;7.578;2022-10-17T02:45:40;2.83;;;2.63;;
47882;SDS011;37739;50.350;7.578;2022-10-17T02:48:14;5.10;;;3.00;;
47882;SDS011;37739;50.350;7.578;2022-10-17T02:50:51;3.67;;;3.23;;
47882;SDS011;37739;50.350;7.578;2022-10-17T02:56:15;3.10;;;2.77;;
47882;SDS011;37739;50.350;7.578;2022-10-17T02:58:48;3.03;;;2.83;;
47882;SDS011;37739;50.350;7.578;2022-10-17T03:01:17;3.60;;;3.30;;
47882;SDS011;37739;50.350;7.578;2022-10-17T03:03:45;4.60;;;2.77;;
47882;SDS011;37739;50.350;7.578;2022-10-17T03:06:15;3.20;;;2.90;;
47882;SDS011;37739;50.350;7.578;2022-10-17T03:08:43;6.23;;;3.00;;
47882;SDS011;37739;50.350;7.578;2022-10-17T03:11:11;3.30;;;3.10;;
47882;SDS011;37739;50.350;7.578;2022-10-17T03:13:36;3.33;;;3.03;;
47882;SDS011;37739;50.350;7.578;2022-10-17T03:16:06;3.63;;;2.80;;
47882;SDS011;37739;50.350;7.578;2022-10-17T03:18:31;3.47;;;3.17;;
47882;SDS011;37739;50.350;7.578;2022-10-17T03:20:56;4.70;;;2.77;;
47882;SDS011;37739;50.350;7.578;2022-10-17T03:23:22;4.03;;;3.70;;
47882;SDS011;37739;50.350;7.578;2022-10-17T03:25:49;3.30;;;3.00;;
47882;SDS011;37739;50.350;7.578;2022-10-17T03:28:14;6.73;;;3.17;;
47882;SDS011;37739;50.350;7.578;2022-10-17T03:30:42;4.87;;;3.47;;
47882;SDS011;37739;50.350;7.578;2022-10-17T03:33:12;5.27;;;3.03;;
47882;SDS011;37739;50.350;7.578;2022-10-17T03:35:40;2.80;;;2.50;;
47882;SDS011;37739;50.350;7.578;2022-10-17T03:38:07;4.20;;;2.60;;
47882;SDS011;37739;50.350;7.578;2022-10-17T03:40:35;3.00;;;2.80;;
47882;SDS011;37739;50.350;7.578;2022-10-17T03:43:03;3.03;;;2.70;;
47882;SDS011;37739;50.350;7.578;2022-10-17T03:45:30;3.27;;;2.97;;
47882;SDS011;37739;50.350;7.578;2022-10-17T03:47:57;2.93;;;2.50;;
47882;SDS011;37739;50.350;7.578;2022-10-17T03:50:23;4.70;;;3.20;;
47882;SDS011;37739;50.350;7.578;2022-10-17T03:52:50;3.77;;;3.47;;
47882;SDS011;37739;50.350;7.578;2022-10-17T03:55:16;4.13;;;3.50;;
47882;SDS011;37739;50.350;7.578;2022-10-17T03:57:41;3.73;;;3.43;;
47882;SDS011;37739;50.350;7.578;2022-10-17T04:00:07;4.27;;;3.30;;
47882;SDS011;37739;50.350;7.578;2022-10-17T04:02:33;3.90;;;3.33;;
47882;SDS011;37739;50.350;7.578;2022-10-17T04:05:02;3.57;;;3.20;;
47882;SDS011;37739;50.350;7.578;2022-10-17T04:07:30;7.93;;;3.73;;
47882;SDS011;37739;50.350;7.578;2022-10-17T04:09:57;6.27;;;3.53;;
47882;SDS011;37739;50.350;7.578;2022-10-17T04:12:23;3.13;;;2.80;;
47882;SDS011;37739;50.350;7.578;2022-10-17T04:14:48;6.40;;;3.57;;
47882;SDS011;37739;50.350;7.578;2022-10-17T04:17:13;4.17;;;3.40;;
47882;SDS011;37739;50.350;7.578;2022-10-17T04:19:39;3.40;;;2.90;;
47882;SDS011;37739;50.350;7.578;2022-10-17T04:22:06;3.50;;;3.20;;
47882;SDS011;37739;50.350;7.578;2022-10-17T04:24:32;3.33;;;3.10;;
47882;SDS011;37739;50.350;7.578;2022-10-17T04:27:00;3.80;;;3.43;;
47882;SDS011;37739;50.350;7.578;2022-10-17T04:29:25;3.43;;;3.17;;
47882;SDS011;37739;50.350;7.578;2022-10-17T04:31:51;3.17;;;2.97;;
47882;SDS011;37739;50.350;7.578;2022-10-17T04:34:16;4.73;;;3.17;;
47882;SDS011;37739;50.350;7.578;2022-10-17T04:36:42;3.50;;;2.97;;
47882;SDS011;37739;50.350;7.578;2022-10-17T04:39:11;3.10;;;2.80;;
47882;SDS011;37739;50.350;7.578;2022-10-17T04:41:36;4.93;;;3.20;;
47882;SDS011;37739;50.350;7.578;2022-10-17T04:44:02;4.00;;;2.73;;
47882;SDS011;37739;50.350;7.578;2022-10-17T04:46:27;2.77;;;2.57;;
47882;SDS011;37739;50.350;7.578;2022-10-17T04:48:53;4.90;;;3.37;;
47882;SDS011;37739;50.350;7.578;2022-10-17T04:51:18;3.47;;;3.20;;
47882;SDS011;37739;50.350;7.578;2022-10-17T04:53:44;3.57;;;3.20;;
47882;SDS011;37739;50.350;7.578;2022-10-17T04:56:11;4.17;;;3.60;;
47882;SDS011;37739;50.350;7.578;2022-10-17T04:58:38;3.37;;;3.07;;
47882;SDS011;37739;50.350;7.578;2022-10-17T05:01:07;3.80;;;3.30;;
47882;SDS011;37739;50.350;7.578;2022-10-17T05:03:35;3.17;;;2.50;;
47882;SDS011;37739;50.350;7.578;2022-10-17T05:06:04;4.73;;;3.50;;
47882;SDS011;37739;50.350;7.578;2022-10-17T05:08:34;4.67;;;2.97;;
47882;SDS011;37739;50.350;7.578;2022-10-17T05:10:59;3.07;;;2.87;;
47882;SDS011;37739;50.350;7.578;2022-10-17T05:13:25;3.70;;;2.80;;
47882;SDS011;37739;50.350;7.578;2022-10-17T05:15:51;4.20;;;3.50;;
47882;SDS011;37739;50.350;7.578;2022-10-17T05:18:21;7.17;;;3.60;;
47882;SDS011;37739;50.350;7.578;2022-10-17T05:20:49;3.37;;;3.07;;
47882;SDS011;37739;50.350;7.578;2022-10-17T05:23:14;4.60;;;3.70;;
47882;SDS011;37739;50.350;7.578;2022-10-17T05:25:40;3.33;;;3.03;;
47882;SDS011;37739;50.350;7.578;2022-10-17T05:28:05;4.20;;;3.40;;
47882;SDS011;37739;50.350;7.578;2022-10-17T05:30:30;3.50;;;3.20;;
47882;SDS011;37739;50.350;7.578;2022-10-17T05:32:56;3.37;;;2.73;;
47882;SDS011;37739;50.350;7.578;2022-10-17T05:35:21;3.87;;;3.57;;
47882;SDS011;37739;50.350;7.578;2022-10-17T05:37:48;4.07;;;3.73;;
47882;SDS011;37739;50.350;7.578;2022-10-17T05:40:14;4.97;;;3.93;;
47882;SDS011;37739;50.350;7.578;2022-10-17T05:42:45;3.53;;;3.10;;
47882;SDS011;37739;50.350;7.578;2022-10-17T05:45:15;3.77;;;3.47;;
47882;SDS011;37739;50.350;7.578;2022-10-17T05:47:41;3.43;;;3.13;;
47882;SDS011;37739;50.350;7.578;2022-10-17T05:50:07;3.53;;;3.23;;
47882;SDS011;37739;50.350;7.578;2022-10-17T05:52:33;3.60;;;3.27;;
47882;SDS011;37739;50.350;7.578;2022-10-17T05:54:58;4.90;;;4.00;;
47882;SDS011;37739;50.350;7.578;2022-10-17T05:57:25;3.23;;;2.93;;
47882;SDS011;37739;50.350;7.578;2022-10-17T05:59:51;4.13;;;3.30;;
47882;SDS011;37739;50.350;7.578;2022-10-17T06:02:16;5.83;;;4.03;;
47882;SDS011;37739;50.350;7.578;2022-10-17T06:04:41;7.77;;;3.60;;
47882;SDS011;37739;50.350;7.578;2022-10-17T06:07:10;3.40;;;3.10;;
47882;SDS011;37739;50.350;7.578;2022-10-17T06:09:38;4.07;;;3.70;;
47882;SDS011;37739;50.350;7.578;2022-10-17T06:12:06;4.03;;;3.73;;
47882;SDS011;37739;50.350;7.578;2022-10-17T06:14:31;3.17;;;2.87;;
47882;SDS011;37739;50.350;7.578;2022-10-17T06:16:57;4.27;;;3.87;;
47882;SDS011;37739;50.350;7.578;2022-10-17T06:19:23;4.03;;;3.70;;
47882;SDS011;37739;50.350;7.578;2022-10-17T06:21:52;3.60;;;3.30;;
47882;SDS011;37739;50.350;7.578;2022-10-17T06:24:18;4.20;;;3.80;;
47882;SDS011;37739;50.350;7.578;2022-10-17T06:26:46;5.50;;;3.70;;
47882;SDS011;37739;50.350;7.578;2022-10-17T06:29:13;5.20;;;4.00;;
47882;SDS011;37739;50.350;7.578;2022-10-17T06:31:39;3.80;;;3.50;;
47882;SDS011;37739;50.350;7.578;2022-10-17T06:34:04;4.50;;;3.30;;
47882;SDS011;37739;50.350;7.578;2022-10-17T06:36:32;3.70;;;3.40;;
47882;SDS011;37739;50.350;7.578;2022-10-17T06:38:57;4.00;;;3.60;;
47882;SDS011;37739;50.350;7.578;2022-10-17T06:41:22;5.63;;;3.40;;
47882;SDS011;37739;50.350;7.578;2022-10-17T06:43:48;3.90;;;3.60;;
47882;SDS011;37739;50.350;7.578;2022-10-17T06:46:14;3.33;;;3.00;;
47882;SDS011;37739;50.350;7.578;2022-10-17T06:48:43;3.80;;;3.50;;
47882;SDS011;37739;50.350;7.578;2022-10-17T06:51:09;3.17;;;2.87;;
47882;SDS011;37739;50.350;7.578;2022-10-17T06:53:35;4.80;;;3.10;;
47882;SDS011;37739;50.350;7.578;2022-10-17T06:56:02;3.00;;;2.80;;
47882;SDS011;37739;50.350;7.578;2022-10-17T06:58:33;3.47;;;3.17;;
47882;SDS011;37739;50.350;7.578;2022-10-17T07:00:59;4.43;;;2.63;;
47882;SDS011;37739;50.350;7.578;2022-10-17T07:03:26;3.60;;;3.30;;
47882;SDS011;37739;50.350;7.578;2022-10-17T07:05:52;3.90;;;3.47;;
47882;SDS011;37739;50.350;7.578;2022-10-17T07:08:19;4.70;;;3.00;;
47882;SDS011;37739;50.350;7.578;2022-10-17T07:10:44;3.00;;;2.80;;
47882;SDS011;37739;50.350;7.578;2022-10-17T07:13:09;3.20;;;2.90;;
47882;SDS011;37739;50.350;7.578;2022-10-17T07:15:35;4.37;;;3.20;;
47882;SDS011;37739;50.350;7.578;2022-10-17T07:18:02;5.03;;;4.03;;
47882;SDS011;37739;50.350;7.578;2022-10-17T07:20:27;4.40;;;3.90;;
47882;SDS011;37739;50.350;7.578;2022-10-17T07:22:55;3.50;;;3.10;;
47882;SDS011;37739;50.350;7.578;2022-10-17T07:25:25;3.80;;;3.47;;
47882;SDS011;37739;50.350;7.578;2022-10-17T07:27:53;4.93;;;3.50;;
47882;SDS011;37739;50.350;7.578;2022-10-17T07:30:24;3.50;;;3.20;;
47882;SDS011;37739;50.350;7.578;2022-10-17T07:32:52;3.10;;;2.90;;
47882;SDS011;37739;50.350;7.578;2022-10-17T07:35:18;3.63;;;3.33;;
47882;SDS011;37739;50.350;7.578;2022-10-17T07:37:46;3.50;;;3.20;;
47882;SDS011;37739;50.350;7.578;2022-10-17T07:40:11;6.67;;;4.30;;
47882;SDS011;37739;50.350;7.578;2022-10-17T07:42:37;6.07;;;4.13;;
47882;SDS011;37739;50.350;7.578;2022-10-17T07:45:02;4.83;;;3.17;;
47882;SDS011;37739;50.350;7.578;2022-10-17T07:47:28;3.27;;;3.07;;
47882;SDS011;37739;50.350;7.578;2022-10-17T07:49:55;3.37;;;2.87;;
47882;SDS011;37739;50.350;7.578;2022-10-17T07:52:20;3.50;;;3.20;;
47882;SDS011;37739;50.350;7.578;2022-10-17T07:54:46;3.07;;;2.87;;
47882;SDS011;37739;50.350;7.578;2022-10-17T07:57:11;3.17;;;2.87;;
47882;SDS011;37739;50.350;7.578;2022-10-17T07:59:39;3.37;;;3.07;;
47882;SDS011;37739;50.350;7.578;2022-10-17T08:02:07;3.30;;;3.00;;
47882;SDS011;37739;50.350;7.578;2022-10-17T08:04:42;2.80;;;2.60;;
47882;SDS011;37739;50.350;7.578;2022-10-17T08:07:09;2.73;;;2.53;;
47882;SDS011;37739;50.350;7.578;2022-10-17T08:09:35;3.30;;;3.00;;
47882;SDS011;37739;50.350;7.578;2022-10-17T08:12:02;3.13;;;2.83;;
47882;SDS011;37739;50.350;7.578;2022-10-17T08:14:28;3.13;;;2.70;;
47882;SDS011;37739;50.350;7.578;2022-10-17T08:16:53;4.60;;;3.37;;
47882;SDS011;37739;50.350;7.578;2022-10-17T08:19:19;4.00;;;3.17;;
47882;SDS011;37739;50.350;7.578;2022-10-17T08:21:44;3.67;;;3.37;;
47882;SDS011;37739;50.350;7.578;2022-10-17T08:24:14;3.60;;;3.30;;
47882;SDS011;37739;50.350;7.578;2022-10-17T08:26:42;3.50;;;3.20;;
47882;SDS011;37739;50.350;7.578;2022-10-17T08:29:11;4.60;;;3.40;;
47882;SDS011;37739;50.350;7.578;2022-10-17T08:31:42;3.60;;;3.30;;
47882;SDS011;37739;50.350;7.578;2022-10-17T08:34:10;3.50;;;3.20;;
47882;SDS011;37739;50.350;7.578;2022-10-17T08:36:35;4.20;;;3.57;;
47882;SDS011;37739;50.350;7.578;2022-10-17T08:39:01;3.53;;;3.23;;
47882;SDS011;37739;50.350;7.578;2022-10-17T08:41:33;3.50;;;3.20;;
47882;SDS011;37739;50.350;7.578;2022-10-17T08:47:00;4.27;;;2.63;;
47882;SDS011;37739;50.350;7.578;2022-10-17T08:49:41;3.70;;;3.30;;
47882;SDS011;37739;50.350;7.578;2022-10-17T08:52:14;3.67;;;2.93;;
47882;SDS011;37739;50.350;7.578;2022-10-17T08:54:44;3.20;;;2.73;;
47882;SDS011;37739;50.350;7.578;2022-10-17T08:57:14;4.60;;;2.43;;
47882;SDS011;37739;50.350;7.578;2022-10-17T08:59:41;3.17;;;2.87;;
47882;SDS011;37739;50.350;7.578;2022-10-17T09:05:13;3.57;;;2.93;;
47882;SDS011;37739;50.350;7.578;2022-10-17T09:08:00;3.20;;;2.60;;
47882;SDS011;37739;50.350;7.578;2022-10-17T09:25:48;4.13;;;2.47;;
47882;SDS011;37739;50.350;7.578;2022-10-17T09:33:49;3.07;;;2.77;;
47882;SDS011;37739;50.350;7.578;2022-10-17T09:36:17;3.97;;;2.60;;
47882;SDS011;37739;50.350;7.578;2022-10-17T09:38:49;4.77;;;2.77;;
47882;SDS011;37739;50.350;7.578;2022-10-17T09:41:18;3.17;;;2.50;;
47882;SDS011;37739;50.350;7.578;2022-10-17T09:43:48;3.47;;;2.63;;
47882;SDS011;37739;50.350;7.578;2022-10-17T09:46:28;3.50;;;2.80;;
47882;SDS011;37739;50.350;7.578;2022-10-17T09:49:04;3.17;;;2.70;;
47882;SDS011;37739;50.350;7.578;2022-10-17T09:51:36;4.50;;;2.73;;
47882;SDS011;37739;50.350;7.578;2022-10-17T09:54:10;2.63;;;2.30;;
47882;SDS011;37739;50.350;7.578;2022-10-17T09:59:30;4.90;;;2.50;;
47882;SDS011;37739;50.350;7.578;2022-10-17T10:02:07;2.90;;;2.23;;
47882;SDS011;37739;50.350;7.578;2022-10-17T10:04:42;2.50;;;2.30;;
47882;SDS011;37739;50.350;7.578;2022-10-17T10:07:17;4.00;;;2.10;;
47882;SDS011;37739;50.350;7.578;2022-10-17T10:09:45;3.60;;;2.23;;
47882;SDS011;37739;50.350;7.578;2022-10-17T10:12:16;5.00;;;2.77;;
47882;SDS011;37739;50.350;7.578;2022-10-17T10:14:46;3.43;;;2.60;;
47882;SDS011;37739;50.350;7.578;2022-10-17T10:20:01;2.90;;;2.40;;
47882;SDS011;37739;50.350;7.578;2022-10-17T10:22:31;2.80;;;2.40;;
47882;SDS011;37739;50.350;7.578;2022-10-17T10:27:40;3.60;;;2.30;;
47882;SDS011;37739;50.350;7.578;2022-10-17T10:30:16;2.83;;;2.00;;
47882;SDS011;37739;50.350;7.578;2022-10-17T10:32:48;2.60;;;2.20;;
47882;SDS011;37739;50.350;7.578;2022-10-17T10:37:43;2.50;;;2.30;;
47882;SDS011;37739;50.350;7.578;2022-10-17T10:40:18;5.73;;;2.50;;
47882;SDS011;37739;50.350;7.578;2022-10-17T10:42:48;3.27;;;2.50;;
47882;SDS011;37739;50.350;7.578;2022-10-17T10:47:50;2.77;;;1.80;;
47882;SDS011;37739;50.350;7.578;2022-10-17T10:50:25;4.03;;;1.80;;
47882;SDS011;37739;50.350;7.578;2022-10-17T11:01:36;4.03;;;2.07;;
47882;SDS011;37739;50.350;7.578;2022-10-17T11:06:46;3.73;;;2.20;;
47882;SDS011;37739;50.350;7.578;2022-10-17T11:14:44;6.00;;;2.40;;
47882;SDS011;37739;50.350;7.578;2022-10-17T11:23:12;3.43;;;2.20;;
47882;SDS011;37739;50.350;7.578;2022-10-17T11:25:38;3.57;;;2.53;;
47882;SDS011;37739;50.350;7.578;2022-10-17T11:28:12;3.50;;;2.10;;
47882;SDS011;37739;50.350;7.578;2022-10-17T11:30:41;2.93;;;1.90;;
47882;SDS011;37739;50.350;7.578;2022-10-17T11:33:13;3.60;;;2.23;;
47882;SDS011;37739;50.350;7.578;2022-10-17T11:35:43;3.20;;;2.20;;
47882;SDS011;37739;50.350;7.578;2022-10-17T11:38:20;3.47;;;1.90;;
47882;SDS011;37739;50.350;7.578;2022-10-17T11:40:58;2.40;;;1.80;;
47882;SDS011;37739;50.350;7.578;2022-10-17T11:46:18;3.63;;;2.47;;
47882;SDS011;37739;50.350;7.578;2022-10-17T11:51:13;2.43;;;2.20;;
47882;SDS011;37739;50.350;7.578;2022-10-17T11:53:46;2.97;;;2.20;;
47882;SDS011;37739;50.350;7.578;2022-10-17T11:56:16;2.70;;;1.90;;
47882;SDS011;37739;50.350;7.578;2022-10-17T12:01:55;3.40;;;2.43;;
47882;SDS011;37739;50.350;7.578;2022-10-17T12:13:18;5.37;;;2.20;;
47882;SDS011;37739;50.350;7.578;2022-10-17T12:15:52;3.63;;;2.13;;
47882;SDS011;37739;50.350;7.578;2022-10-17T12:18:18;3.07;;;2.37;;
47882;SDS011;37739;50.350;7.578;2022-10-17T12:20:53;4.77;;;2.30;;
47882;SDS011;37739;50.350;7.578;2022-10-17T12:23:26;2.63;;;1.93;;
47882;SDS011;37739;50.350;7.578;2022-10-17T12:25:57;4.50;;;2.73;;
47882;SDS011;37739;50.350;7.578;2022-10-17T12:30:59;3.07;;;2.20;;
47882;SDS011;37739;50.350;7.578;2022-10-17T12:33:29;2.53;;;2.10;;
47882;SDS011;37739;50.350;7.578;2022-10-17T12:39:20;3.50;;;2.00;;
47882;SDS011;37739;50.350;7.578;2022-10-17T12:46:42;2.17;;;1.80;;
47882;SDS011;37739;50.350;7.578;2022-10-17T12:49:21;3.63;;;2.30;;
47882;SDS011;37739;50.350;7.578;2022-10-17T12:57:19;5.47;;;2.23;;
47882;SDS011;37739;50.350;7.578;2022-10-17T12:59:48;3.13;;;2.00;;
47882;SDS011;37739;50.350;7.578;2022-10-17T13:02:16;4.30;;;2.57;;
47882;SDS011;37739;50.350;7.578;2022-10-17T13:04:46;2.83;;;2.20;;
47882;SDS011;37739;50.350;7.578;2022-10-17T13:07:20;3.10;;;1.97;;
47882;SDS011;37739;50.350;7.578;2022-10-17T13:09:47;3.47;;;2.23;;
47882;SDS011;37739;50.350;7.578;2022-10-17T13:12:17;3.50;;;2.10;;
47882;SDS011;37739;50.350;7.578;2022-10-17T13:14:47;4.17;;;2.10;;
47882;SDS011;37739;50.350;7.578;2022-10-17T13:17:25;4.00;;;2.13;;
47882;SDS011;37739;50.350;7.578;2022-10-17T13:19:58;4.33;;;1.90;;
47882;SDS011;37739;50.350;7.578;2022-10-17T13:22:27;2.53;;;1.60;;
47882;SDS011;37739;50.350;7.578;2022-10-17T13:25:07;3.87;;;2.47;;
47882;SDS011;37739;50.350;7.578;2022-10-17T13:27:37;3.03;;;2.30;;
47882;SDS011;37739;50.350;7.578;2022-10-17T13:30:20;3.00;;;2.67;;
47882;SDS011;37739;50.350;7.578;2022-10-17T13:32:55;3.40;;;2.70;;
47882;SDS011;37739;50.350;7.578;2022-10-17T13:35:26;4.37;;;3.23;;
47882;SDS011;37739;50.350;7.578;2022-10-17T13:37:55;6.10;;;3.80;;
47882;SDS011;37739;50.350;7.578;2022-10-17T13:40:22;5.20;;;4.80;;
47882;SDS011;37739;50.350;7.578;2022-10-17T13:42:49;5.13;;;4.50;;
47882;SDS011;37739;50.350;7.578;2022-10-17T13:45:18;4.10;;;2.90;;
47882;SDS011;37739;50.350;7.578;2022-10-17T13:47:52;2.93;;;2.63;;
47882;SDS011;37739;50.350;7.578;2022-10-17T13:50:25;2.60;;;2.20;;
47882;SDS011;37739;50.350;7.578;2022-10-17T13:53:56;2.60;;;1.93;;
47882;SDS011;37739;50.350;7.578;2022-10-17T13:55:57;4.70;;;2.23;;
47882;SDS011;37739;50.350;7.578;2022-10-17T13:58:40;4.83;;;3.63;;
47882;SDS011;37739;50.350;7.578;2022-10-17T14:01:06;5.00;;;4.60;;
47882;SDS011;37739;50.350;7.578;2022-10-17T14:03:34;4.10;;;3.80;;
47882;SDS011;37739;50.350;7.578;2022-10-17T14:06:05;4.60;;;4.10;;
47882;SDS011;37739;50.350;7.578;2022-10-17T14:08:33;3.40;;;2.43;;
47882;SDS011;37739;50.350;7.578;2022-10-17T14:11:00;3.90;;;2.83;;
47882;SDS011;37739;50.350;7.578;2022-10-17T14:13:42;4.40;;;2.23;;
47882;SDS011;37739;50.350;7.578;2022-10-17T14:16:12;2.67;;;2.00;;
47882;SDS011;37739;50.350;7.578;2022-10-17T14:18:37;3.70;;;2.80;;
47882;SDS011;37739;50.350;7.578;2022-10-17T14:21:03;2.40;;;2.20;;
47882;SDS011;37739;50.350;7.578;2022-10-17T14:23:31;5.00;;;2.50;;
47882;SDS011;37739;50.350;7.578;2022-10-17T14:26:04;4.90;;;2.50;;
47882;SDS011;37739;50.350;7.578;2022-10-17T14:28:37;2.37;;;2.00;;
47882;SDS011;37739;50.350;7.578;2022-10-17T14:31:11;2.63;;;1.80;;
47882;SDS011;37739;50.350;7.578;2022-10-17T14:33:46;2.40;;;2.00;;
47882;SDS011;37739;50.350;7.578;2022-10-17T14:36:13;4.23;;;2.20;;
47882;SDS011;37739;50.350;7.578;2022-10-17T14:38:43;6.10;;;2.17;;
47882;SDS011;37739;50.350;7.578;2022-10-17T14:41:14;2.63;;;1.80;;
47882;SDS011;37739;50.350;7.578;2022-10-17T14:43:51;2.57;;;2.20;;
47882;SDS011;37739;50.350;7.578;2022-10-17T14:46:18;2.37;;;2.00;;
47882;SDS011;37739;50.350;7.578;2022-10-17T14:48:44;3.43;;;2.03;;
47882;SDS011;37739;50.350;7.578;2022-10-17T14:51:15;3.67;;;2.10;;
47882;SDS011;37739;50.350;7.578;2022-10-17T14:53:43;2.00;;;1.73;;
47882;SDS011;37739;50.350;7.578;2022-10-17T14:56:24;3.20;;;2.13;;
47882;SDS011;37739;50.350;7.578;2022-10-17T14:58:54;2.30;;;1.87;;
47882;SDS011;37739;50.350;7.578;2022-10-17T15:01:19;2.73;;;1.60;;
47882;SDS011;37739;50.350;7.578;2022-10-17T15:03:47;2.10;;;1.90;;
47882;SDS011;37739;50.350;7.578;2022-10-17T15:06:19;2.20;;;2.00;;
47882;SDS011;37739;50.350;7.578;2022-10-17T15:08:48;3.50;;;2.20;;
47882;SDS011;37739;50.350;7.578;2022-10-17T15:11:13;4.47;;;2.90;;
47882;SDS011;37739;50.350;7.578;2022-10-17T15:13:41;4.67;;;2.77;;
47882;SDS011;37739;50.350;7.578;2022-10-17T15:16:19;6.30;;;2.87;;
47882;SDS011;37739;50.350;7.578;2022-10-17T15:18:47;4.30;;;2.40;;
47882;SDS011;37739;50.350;7.578;2022-10-17T15:21:17;3.10;;;2.53;;
47882;SDS011;37739;50.350;7.578;2022-10-17T15:23:47;3.27;;;2.33;;
47882;SDS011;37739;50.350;7.578;2022-10-17T15:26:14;4.03;;;2.37;;
47882;SDS011;37739;50.350;7.578;2022-10-17T15:28:44;4.03;;;2.80;;
47882;SDS011;37739;50.350;7.578;2022-10-17T15:31:11;4.03;;;2.83;;
47882;SDS011;37739;50.350;7.578;2022-10-17T15:33:41;3.50;;;2.50;;
47882;SDS011;37739;50.350;7.578;2022-10-17T15:39:08;2.70;;;2.23;;
47882;SDS011;37739;50.350;7.578;2022-10-17T15:41:33;3.53;;;3.23;;
47882;SDS011;37739;50.350;7.578;2022-10-17T15:44:05;3.70;;;2.57;;
47882;SDS011;37739;50.350;7.578;2022-10-17T15:46:32;4.13;;;2.70;;
47882;SDS011;37739;50.350;7.578;2022-10-17T15:49:05;2.03;;;1.93;;
47882;SDS011;37739;50.350;7.578;2022-10-17T15:51:36;4.43;;;2.60;;
47882;SDS011;37739;50.350;7.578;2022-10-17T15:54:01;5.03;;;2.23;;
47882;SDS011;37739;50.350;7.578;2022-10-17T15:56:29;4.50;;;2.77;;
47882;SDS011;37739;50.350;7.578;2022-10-17T15:59:00;5.20;;;2.60;;
47882;SDS011;37739;50.350;7.578;2022-10-17T16:01:29;3.70;;;2.83;;
47882;SDS011;37739;50.350;7.578;2022-10-17T16:03:56;3.70;;;2.60;;
47882;SDS011;37739;50.350;7.578;2022-10-17T16:06:24;3.27;;;2.00;;
47882;SDS011;37739;50.350;7.578;2022-10-17T16:08:50;5.47;;;2.73;;
47882;SDS011;37739;50.350;7.578;2022-10-17T16:11:17;3.47;;;2.17;;
47882;SDS011;37739;50.350;7.578;2022-10-17T16:13:52;3.30;;;2.20;;
47882;SDS011;37739;50.350;7.578;2022-10-17T16:16:19;2.63;;;2.43;;
47882;SDS011;37739;50.350;7.578;2022-10-17T16:18:46;4.87;;;2.40;;
47882;SDS011;37739;50.350;7.578;2022-10-17T16:21:12;4.10;;;2.50;;
47882;SDS011;37739;50.350;7.578;2022-10-17T16:23:42;2.07;;;1.70;;
47882;SDS011;37739;50.350;7.578;2022-10-17T16:26:10;2.27;;;1.67;;
47882;SDS011;37739;50.350;7.578;2022-10-17T16:28:40;2.43;;;2.13;;
47882;SDS011;37739;50.350;7.578;2022-10-17T16:31:12;2.90;;;1.60;;
47882;SDS011;37739;50.350;7.578;2022-10-17T16:33:41;3.93;;;1.80;;
47882;SDS011;37739;50.350;7.578;2022-10-17T16:36:06;2.23;;;1.20;;
47882;SDS011;37739;50.350;7.578;2022-10-17T16:38:34;2.93;;;1.63;;
47882;SDS011;37739;50.350;7.578;2022-10-17T16:41:02;5.50;;;2.03;;
47882;SDS011;37739;50.350;7.578;2022-10-17T16:43:28;2.70;;;1.97;;
47882;SDS011;37739;50.350;7.578;2022-10-17T16:46:02;6.27;;;2.20;;
47882;SDS011;37739;50.350;7.578;2022-10-17T16:48:30;1.83;;;1.70;;
47882;SDS011;37739;50.350;7.578;2022-10-17T16:50:55;3.80;;;1.83;;
47882;SDS011;37739;50.350;7.578;2022-10-17T16:53:23;3.23;;;2.30;;
47882;SDS011;37739;50.350;7.578;2022-10-17T16:56:01;2.63;;;2.00;;
47882;SDS011;37739;50.350;7.578;2022-10-17T16:58:30;2.73;;;1.90;;
47882;SDS011;37739;50.350;7.578;2022-10-17T17:01:01;4.50;;;2.17;;
47882;SDS011;37739;50.350;7.578;2022-10-17T17:03:33;2.97;;;1.77;;
47882;SDS011;37739;50.350;7.578;2022-10-17T17:06:04;3.30;;;2.27;;